createdAt,value
2022-11-20T00:01:26.715Z,17.25
2022-11-20T00:03:54.683Z,15.25
2022-11-20T00:06:22.760Z,14.55
2022-11-20T00:08:50.011Z,14.63
2022-11-20T00:11:22.101Z,13.55
2022-11-20T00:13:50.946Z,15.30
2022-11-20T00:16:20.542Z,14.10
2022-11-20T00:18:47.959Z,14.13
2022-11-20T00:21:17.324Z,14.18
2022-11-20T00:23:44.270Z,14.50
2022-11-20T00:26:13.466Z,12.98
2022-11-20T00:28:40.661Z,12.77
2022-11-20T00:31:09.559Z,14.23
2022-11-20T00:33:36.879Z,13.38
2022-11-20T00:36:09.327Z,12.15
2022-11-20T00:38:36.478Z,12.48
2022-11-20T00:41:05.769Z,11.50
2022-11-20T00:43:32.752Z,14.65
2022-11-20T00:46:03.886Z,13.60
2022-11-20T00:48:30.912Z,12.82
2022-11-20T00:50:58.099Z,12.15
2022-11-20T00:53:25.560Z,13.05
2022-11-20T00:56:00.553Z,12.25
2022-11-20T00:58:33.871Z,13.63
2022-11-20T01:01:08.943Z,12.77
2022-11-20T01:03:37.913Z,12.77
2022-11-20T01:06:06.812Z,13.60
2022-11-20T01:08:37.468Z,12.13
2022-11-20T01:11:06.485Z,13.43
2022-11-20T01:13:40.103Z,11.80
2022-11-20T01:16:12.565Z,11.32
2022-11-20T01:18:42.142Z,11.38
2022-11-20T01:21:33.033Z,11.48
2022-11-20T01:24:00.800Z,10.90
2022-11-20T01:26:31.688Z,11.43
2022-11-20T01:28:59.633Z,11.45
2022-11-20T01:31:27.666Z,11.77
2022-11-20T01:33:56.976Z,12.95
2022-11-20T01:36:28.373Z,11.63
2022-11-20T01:39:00.098Z,12.23
2022-11-20T01:41:54.553Z,11.77
2022-11-20T01:44:24.364Z,11.77
2022-11-20T01:46:59.747Z,11.90
2022-11-20T01:49:39.673Z,10.85
2022-11-20T01:52:13.376Z,11.50
2022-11-20T01:54:54.134Z,12.45
2022-11-20T01:57:21.403Z,11.70
2022-11-20T01:59:56.115Z,12.13
2022-11-20T02:02:35.454Z,10.90
2022-11-20T02:05:23.144Z,11.50
2022-11-20T02:07:49.997Z,11.23
2022-11-20T02:10:17.036Z,11.82
2022-11-20T02:13:02.660Z,11.38
2022-11-20T02:15:30.545Z,11.48
2022-11-20T02:17:57.557Z,12.55
2022-11-20T02:20:24.571Z,12.30
2022-11-20T02:22:55.457Z,11.52
2022-11-20T02:25:22.487Z,10.50
2022-11-20T02:27:49.435Z,9.77
2022-11-20T02:30:16.332Z,10.38
2022-11-20T02:32:43.226Z,11.80
2022-11-20T02:35:21.913Z,11.13
2022-11-20T02:37:51.346Z,9.10
2022-11-20T02:40:18.297Z,10.40
2022-11-20T02:42:45.133Z,10.38
2022-11-20T02:45:12.085Z,11.13
2022-11-20T02:47:38.982Z,11.43
2022-11-20T02:50:06.904Z,10.32
2022-11-20T02:52:33.727Z,12.15
2022-11-20T02:55:01.578Z,11.30
2022-11-20T02:57:28.990Z,10.57
2022-11-20T02:59:55.952Z,10.13
2022-11-20T03:02:23.010Z,9.73
2022-11-20T03:05:09.043Z,11.48
2022-11-20T03:07:36.275Z,11.45
2022-11-20T03:10:03.650Z,12.07
2022-11-20T03:12:30.637Z,10.90
2022-11-20T03:14:57.517Z,11.98
2022-11-20T03:17:24.346Z,12.38
2022-11-20T03:19:51.194Z,11.45
2022-11-20T03:22:18.034Z,12.07
2022-11-20T03:24:44.880Z,19.58
2022-11-20T03:27:11.710Z,16.00
2022-11-20T03:29:38.529Z,12.80
2022-11-20T03:32:05.671Z,13.88
2022-11-20T03:34:32.696Z,36.53
2022-11-20T03:36:59.603Z,25.38
2022-11-20T03:39:27.183Z,17.63
2022-11-20T03:41:54.195Z,13.60
2022-11-20T03:44:22.643Z,13.70
2022-11-20T03:46:49.490Z,13.50
2022-11-20T03:49:16.459Z,16.25
2022-11-20T03:51:43.343Z,13.63
2022-11-20T03:54:10.294Z,16.88
2022-11-20T03:56:39.056Z,26.30
2022-11-20T03:59:06.174Z,16.63
2022-11-20T04:01:35.457Z,12.70
2022-11-20T04:04:02.709Z,16.50
2022-11-20T04:06:32.208Z,12.00
2022-11-20T04:09:00.431Z,12.25
2022-11-20T04:11:28.458Z,10.50
2022-11-20T04:13:57.964Z,11.25
2022-11-20T04:16:26.187Z,10.80
2022-11-20T04:18:55.021Z,11.15
2022-11-20T04:21:22.471Z,11.82
2022-11-20T04:23:50.456Z,10.70
2022-11-20T04:26:17.460Z,10.75
2022-11-20T04:28:44.726Z,13.23
2022-11-20T04:31:16.637Z,10.60
2022-11-20T04:33:43.823Z,45.20
2022-11-20T04:36:16.128Z,45.67
2022-11-20T04:38:43.212Z,18.40
2022-11-20T04:41:18.778Z,28.88
2022-11-20T04:43:54.604Z,33.08
2022-11-20T04:46:22.016Z,24.63
2022-11-20T04:48:49.117Z,59.92
2022-11-20T04:51:16.120Z,15.23
2022-11-20T04:53:43.463Z,139.70
2022-11-20T04:56:12.093Z,73.60
2022-11-20T04:58:39.661Z,16.20
2022-11-20T05:01:09.028Z,53.13
2022-11-20T05:03:41.017Z,13.85
2022-11-20T05:06:10.515Z,11.80
2022-11-20T05:08:37.438Z,27.73
2022-11-20T05:11:08.744Z,41.45
2022-11-20T05:13:35.832Z,34.97
2022-11-20T05:16:07.906Z,39.25
2022-11-20T05:18:35.379Z,32.43
2022-11-20T05:21:02.544Z,25.30
2022-11-20T05:23:31.196Z,27.65
2022-11-20T05:25:59.593Z,26.58
2022-11-20T05:28:27.458Z,34.33
2022-11-20T05:30:54.387Z,25.45
2022-11-20T05:33:21.798Z,25.67
2022-11-20T05:35:49.502Z,17.15
2022-11-20T05:38:16.752Z,21.25
2022-11-20T05:40:43.638Z,26.23
2022-11-20T05:43:10.611Z,28.55
2022-11-20T05:45:37.443Z,21.10
2022-11-20T05:48:04.799Z,14.43
2022-11-20T05:50:31.645Z,17.17
2022-11-20T05:53:01.666Z,16.10
2022-11-20T05:55:28.902Z,15.90
2022-11-20T05:57:56.281Z,13.70
2022-11-20T06:00:23.432Z,15.25
2022-11-20T06:02:50.630Z,14.10
2022-11-20T06:05:17.603Z,12.73
2022-11-20T06:07:44.529Z,18.88
2022-11-20T06:10:12.005Z,13.98
2022-11-20T06:12:38.882Z,15.63
2022-11-20T06:15:06.704Z,16.63
2022-11-20T06:17:33.858Z,15.27
2022-11-20T06:20:00.760Z,14.27
2022-11-20T06:22:27.627Z,15.75
2022-11-20T06:24:54.437Z,14.07
2022-11-20T06:27:21.348Z,14.60
2022-11-20T06:29:48.193Z,14.05
2022-11-20T06:32:15.113Z,11.95
2022-11-20T06:34:41.959Z,13.68
2022-11-20T06:37:08.795Z,14.82
2022-11-20T06:39:35.589Z,14.05
2022-11-20T06:42:02.900Z,14.25
2022-11-20T06:44:29.735Z,13.82
2022-11-20T06:46:56.525Z,14.60
2022-11-20T06:49:23.774Z,14.13
2022-11-20T06:51:50.853Z,14.25
2022-11-20T06:54:17.669Z,14.23
2022-11-20T06:56:48.969Z,14.32
2022-11-20T06:59:16.019Z,13.15
2022-11-20T07:01:42.836Z,13.68
2022-11-20T07:04:09.905Z,14.95
2022-11-20T07:06:37.193Z,15.05
2022-11-20T07:09:06.394Z,15.55
2022-11-20T07:11:35.415Z,14.38
2022-11-20T07:14:02.703Z,14.80
2022-11-20T07:17:09.729Z,14.15
2022-11-20T07:19:36.574Z,15.10
2022-11-20T07:22:03.553Z,13.85
2022-11-20T07:24:30.394Z,13.43
2022-11-20T07:26:57.229Z,14.35
2022-11-20T07:29:24.257Z,14.93
2022-11-20T07:31:51.224Z,14.02
2022-11-20T07:34:18.212Z,15.35
2022-11-20T07:36:45.128Z,14.00
2022-11-20T07:39:12.029Z,15.27
2022-11-20T07:41:38.925Z,14.50
2022-11-20T07:44:06.069Z,14.43
2022-11-20T07:46:33.030Z,16.65
2022-11-20T07:48:59.986Z,15.00
2022-11-20T07:51:27.062Z,16.15
2022-11-20T07:53:54.119Z,15.43
2022-11-20T07:56:21.735Z,13.90
2022-11-20T07:58:48.614Z,14.68
2022-11-20T08:01:15.534Z,27.65
2022-11-20T08:03:42.399Z,32.22
2022-11-20T08:06:09.799Z,36.47
2022-11-20T08:08:41.411Z,21.40
2022-11-20T08:14:13.418Z,50.67
2022-11-20T08:16:45.969Z,21.08
2022-11-20T08:19:14.225Z,22.63
2022-11-20T08:21:41.703Z,27.10
2022-11-20T08:24:09.632Z,18.02
2022-11-20T08:26:37.917Z,16.80
2022-11-20T08:29:05.559Z,37.25
2022-11-20T08:31:32.832Z,25.30
2022-11-20T08:33:59.643Z,28.17
2022-11-20T08:36:26.688Z,30.58
2022-11-20T08:38:55.311Z,28.83
2022-11-20T08:41:26.470Z,23.48
2022-11-20T08:43:58.295Z,30.15
2022-11-20T08:46:27.865Z,25.08
2022-11-20T08:48:54.962Z,20.63
2022-11-20T08:51:22.060Z,28.42
2022-11-20T08:53:49.722Z,22.70
2022-11-20T08:56:17.068Z,21.70
2022-11-20T08:59:16.116Z,19.27
2022-11-20T09:01:32.324Z,26.73
2022-11-20T09:04:00.693Z,18.65
2022-11-20T09:06:27.541Z,15.77
2022-11-20T09:08:55.111Z,17.20
2022-11-20T09:11:22.342Z,17.92
2022-11-20T09:13:49.301Z,18.00
2022-11-20T09:16:16.171Z,17.98
2022-11-20T09:18:43.061Z,27.40
2022-11-20T09:21:14.747Z,26.60
2022-11-20T09:23:41.689Z,30.88
2022-11-20T09:26:13.785Z,34.10
2022-11-20T09:28:41.247Z,45.80
2022-11-20T09:31:24.784Z,29.05
2022-11-20T09:33:51.939Z,23.40
2022-11-20T09:36:19.710Z,80.38
2022-11-20T09:38:47.205Z,44.88
2022-11-20T09:41:46.906Z,43.90
2022-11-20T09:44:22.358Z,26.25
2022-11-20T09:47:07.989Z,21.30
2022-11-20T09:49:57.429Z,18.77
2022-11-20T09:52:43.687Z,19.33
2022-11-20T09:55:12.349Z,20.40
2022-11-20T09:57:45.544Z,17.35
2022-11-20T10:00:14.472Z,20.77
2022-11-20T10:02:46.383Z,18.23
2022-11-20T10:05:22.832Z,22.13
2022-11-20T10:08:11.002Z,19.00
2022-11-20T10:10:59.957Z,29.77
2022-11-20T10:13:51.247Z,28.42
2022-11-20T10:16:59.261Z,33.08
2022-11-20T10:19:47.318Z,26.70
2022-11-20T10:22:53.942Z,23.52
2022-11-20T10:25:25.665Z,26.35
2022-11-20T10:28:05.616Z,24.27
2022-11-20T10:30:32.723Z,24.58
2022-11-20T10:33:07.757Z,25.83
2022-11-20T10:36:03.934Z,23.77
2022-11-20T10:39:18.822Z,27.40
2022-11-20T10:41:49.469Z,34.78
2022-11-20T10:44:38.991Z,31.50
2022-11-20T10:47:09.442Z,23.50
2022-11-20T10:49:36.637Z,18.23
2022-11-20T10:52:24.637Z,16.15
2022-11-20T10:55:19.833Z,16.70
2022-11-20T10:57:50.090Z,16.80
2022-11-20T11:00:18.316Z,16.98
2022-11-20T11:02:56.051Z,14.52
2022-11-20T11:05:46.317Z,15.65
2022-11-20T11:08:18.892Z,15.63
2022-11-20T11:11:00.559Z,13.63
2022-11-20T11:13:30.017Z,15.65
2022-11-20T11:15:58.753Z,14.48
2022-11-20T11:18:27.933Z,14.27
2022-11-20T11:20:56.037Z,16.45
2022-11-20T11:23:43.117Z,19.40
2022-11-20T11:26:24.176Z,17.95
2022-11-20T11:29:04.528Z,17.60
2022-11-20T11:31:35.814Z,14.52
2022-11-20T11:34:12.276Z,13.82
2022-11-20T11:36:39.520Z,13.63
2022-11-20T11:39:12.294Z,13.02
2022-11-20T11:41:39.170Z,14.07
2022-11-20T11:44:39.913Z,14.48
2022-11-20T11:47:24.272Z,15.02
2022-11-20T11:50:10.819Z,15.18
2022-11-20T11:52:45.354Z,14.63
2022-11-20T11:55:26.086Z,14.50
2022-11-20T11:57:57.375Z,12.73
2022-11-20T12:00:24.339Z,14.68
2022-11-20T12:03:12.726Z,14.50
2022-11-20T12:05:50.757Z,15.20
2022-11-20T12:08:23.791Z,17.77
2022-11-20T12:11:31.653Z,14.93
2022-11-20T12:14:20.823Z,13.13
2022-11-20T12:16:47.909Z,14.63
2022-11-20T12:19:15.706Z,13.52
2022-11-20T12:22:19.404Z,14.60
2022-11-20T12:27:55.106Z,14.82
2022-11-20T12:30:22.953Z,11.88
2022-11-20T12:33:26.526Z,12.00
2022-11-20T12:36:12.085Z,14.43
2022-11-20T12:38:57.208Z,11.57
2022-11-20T12:41:47.185Z,12.23
2022-11-20T12:45:10.344Z,11.43
2022-11-20T12:47:48.881Z,10.95
2022-11-20T12:51:00.251Z,11.27
2022-11-20T12:53:47.770Z,8.38
2022-11-20T12:57:03.580Z,11.13
2022-11-20T12:59:53.473Z,11.00
2022-11-20T13:02:31.700Z,10.73
2022-11-20T13:05:19.248Z,10.98
2022-11-20T13:07:46.748Z,9.93
2022-11-20T13:10:28.168Z,10.70
2022-11-20T13:13:03.468Z,10.52
2022-11-20T13:15:50.522Z,14.75
2022-11-20T13:18:17.733Z,19.70
2022-11-20T13:20:46.601Z,16.65
2022-11-20T13:23:28.485Z,12.07
2022-11-20T13:26:06.512Z,11.77
2022-11-20T13:28:33.768Z,12.52
2022-11-20T13:31:00.831Z,13.90
2022-11-20T13:33:35.808Z,18.75
2022-11-20T13:36:07.703Z,16.42
2022-11-20T13:38:51.781Z,30.52
2022-11-20T13:41:39.067Z,17.92
2022-11-20T13:44:27.873Z,14.85
2022-11-20T13:46:54.777Z,28.65
2022-11-20T13:49:43.924Z,22.13
2022-11-20T13:52:49.525Z,29.08
2022-11-20T13:55:52.181Z,42.90
2022-11-20T13:58:58.596Z,33.55
2022-11-20T14:01:32.583Z,31.75
2022-11-20T14:04:06.041Z,24.95
2022-11-20T14:06:36.330Z,21.98
2022-11-20T14:09:03.237Z,45.78
2022-11-20T14:11:31.411Z,37.92
2022-11-20T14:13:59.547Z,45.72
2022-11-20T14:16:28.579Z,30.90
2022-11-20T14:18:56.587Z,22.38
2022-11-20T14:21:28.130Z,24.20
2022-11-20T14:24:05.566Z,29.20
2022-11-20T14:26:33.023Z,24.08
2022-11-20T14:29:00.408Z,19.25
2022-11-20T14:31:28.029Z,20.98
2022-11-20T14:33:55.654Z,144.25
2022-11-20T14:36:24.539Z,140.25
2022-11-20T14:38:52.638Z,66.47
2022-11-20T14:41:24.243Z,36.85
2022-11-20T14:44:00.980Z,21.45
2022-11-20T14:46:29.012Z,36.85
2022-11-20T14:48:57.453Z,34.22
2022-11-20T14:51:29.611Z,24.23
2022-11-20T14:53:56.499Z,16.70
2022-11-20T14:56:26.172Z,18.42
2022-11-20T14:58:59.409Z,23.02
2022-11-20T15:01:31.071Z,22.55
2022-11-20T15:04:01.795Z,27.17
2022-11-20T15:06:28.950Z,25.45
2022-11-20T15:08:56.069Z,23.58
2022-11-20T15:11:29.329Z,26.23
2022-11-20T15:13:56.585Z,19.95
2022-11-20T15:16:24.962Z,20.00
2022-11-20T15:18:52.522Z,22.17
2022-11-20T15:21:21.824Z,20.08
2022-11-20T15:23:49.156Z,21.95
2022-11-20T15:26:26.702Z,25.80
2022-11-20T15:28:54.280Z,37.70
2022-11-20T15:31:23.419Z,34.25
2022-11-20T15:33:50.468Z,70.60
2022-11-20T15:36:18.076Z,45.60
2022-11-20T15:38:45.041Z,40.38
2022-11-20T15:41:12.389Z,36.50
2022-11-20T15:43:39.691Z,36.20
2022-11-20T15:46:15.006Z,40.08
2022-11-20T15:48:48.219Z,32.60
2022-11-20T15:51:37.145Z,30.85
2022-11-20T15:54:23.787Z,26.15
2022-11-20T15:56:53.306Z,27.67
2022-11-20T15:59:20.221Z,24.15
2022-11-20T16:01:47.366Z,19.40
2022-11-20T16:04:16.374Z,20.00
2022-11-20T16:06:43.595Z,22.73
2022-11-20T16:09:10.713Z,21.52
2022-11-20T16:11:38.347Z,27.30
2022-11-20T16:14:25.211Z,23.33
2022-11-20T16:16:52.354Z,20.42
2022-11-20T16:19:19.617Z,27.85
2022-11-20T16:21:46.865Z,34.65
2022-11-20T16:24:15.294Z,31.05
2022-11-20T16:26:42.569Z,25.77
2022-11-20T16:29:09.738Z,28.35
2022-11-20T16:31:36.810Z,24.40
2022-11-20T16:34:11.549Z,32.08
2022-11-20T16:36:43.482Z,49.63
2022-11-20T16:39:10.899Z,66.28
2022-11-20T16:41:37.801Z,68.32
2022-11-20T16:44:09.444Z,28.83
2022-11-20T16:46:36.321Z,28.08
2022-11-20T16:49:09.983Z,25.80
2022-11-20T16:51:37.184Z,25.35
2022-11-20T16:54:09.096Z,25.25
2022-11-20T16:56:36.549Z,22.80
2022-11-20T16:59:04.398Z,25.33
2022-11-20T17:01:31.866Z,23.80
2022-11-20T17:04:03.234Z,25.00
2022-11-20T17:06:34.747Z,27.40
2022-11-20T17:09:02.470Z,28.98
2022-11-20T17:11:29.814Z,25.95
2022-11-20T17:13:58.068Z,32.20
2022-11-20T17:16:25.463Z,32.13
2022-11-20T17:18:58.333Z,36.00
2022-11-20T17:21:30.009Z,26.65
2022-11-20T17:23:59.845Z,25.02
2022-11-20T17:26:28.386Z,25.13
2022-11-20T17:28:58.255Z,29.73
2022-11-20T17:31:26.338Z,33.35
2022-11-20T17:33:53.466Z,32.28
2022-11-20T17:36:20.727Z,36.75
2022-11-20T17:38:47.804Z,24.25
2022-11-20T17:41:19.780Z,35.55
2022-11-20T17:43:46.808Z,47.25
2022-11-20T17:46:18.390Z,30.50
2022-11-20T17:48:46.184Z,66.90
2022-11-20T17:51:18.932Z,37.88
2022-11-20T17:53:47.684Z,71.85
2022-11-20T17:56:33.237Z,63.47
2022-11-20T17:59:00.749Z,37.85
2022-11-20T18:01:27.634Z,44.85
2022-11-20T18:03:56.629Z,55.72
2022-11-20T18:06:26.376Z,43.13
2022-11-20T18:08:53.745Z,33.05
2022-11-20T18:11:26.028Z,48.25
2022-11-20T18:14:14.183Z,32.22
2022-11-20T18:16:46.072Z,38.70
2022-11-20T18:19:18.089Z,42.78
2022-11-20T18:21:45.022Z,35.92
2022-11-20T18:24:11.907Z,37.10
2022-11-20T18:26:44.063Z,32.03
2022-11-20T18:29:12.339Z,29.85
2022-11-20T18:31:39.584Z,50.10
2022-11-20T18:34:11.429Z,34.72
2022-11-20T18:36:38.871Z,30.30
2022-11-20T18:39:06.351Z,26.33
2022-11-20T18:41:52.023Z,28.38
2022-11-20T18:44:43.372Z,45.15
2022-11-20T18:47:14.848Z,40.15
2022-11-20T18:49:52.932Z,29.77
2022-11-20T18:52:25.206Z,24.52
2022-11-20T18:54:53.159Z,45.42
2022-11-20T18:57:21.401Z,30.45
2022-11-20T18:59:48.303Z,37.15
2022-11-20T19:02:17.718Z,32.58
2022-11-20T19:04:44.580Z,35.55
2022-11-20T19:07:12.207Z,20.85
2022-11-20T19:09:40.770Z,27.00
2022-11-20T19:12:08.737Z,22.40
2022-11-20T19:14:35.975Z,29.83
2022-11-20T19:17:04.809Z,26.92
2022-11-20T19:19:31.821Z,17.58
2022-11-20T19:21:58.701Z,13.85
2022-11-20T19:24:27.586Z,16.20
2022-11-20T19:26:56.210Z,16.58
2022-11-20T19:29:24.455Z,15.75
2022-11-20T19:31:51.815Z,12.50
2022-11-20T19:34:18.709Z,15.90
2022-11-20T19:36:45.709Z,16.90
2022-11-20T19:39:13.268Z,28.13
2022-11-20T19:41:40.868Z,13.63
2022-11-20T19:44:10.560Z,11.90
2022-11-20T19:46:38.873Z,12.32
2022-11-20T19:49:07.575Z,10.15
2022-11-20T19:51:35.568Z,18.83
2022-11-20T19:54:03.200Z,10.55
2022-11-20T19:56:31.650Z,10.75
2022-11-20T19:58:58.609Z,9.27
2022-11-20T20:01:27.598Z,8.52
2022-11-20T20:03:55.360Z,8.00
2022-11-20T20:06:24.760Z,10.85
2022-11-20T20:08:59.761Z,8.52
2022-11-20T20:11:29.202Z,14.90
2022-11-20T20:13:56.532Z,11.70
2022-11-20T20:16:26.314Z,21.88
2022-11-20T20:18:57.850Z,11.55
2022-11-20T20:21:25.122Z,7.18
2022-11-20T20:23:55.517Z,8.32
2022-11-20T20:26:24.011Z,5.53
2022-11-20T20:28:51.323Z,7.45
2022-11-20T20:31:21.435Z,5.53
2022-11-20T20:33:48.652Z,7.88
2022-11-20T20:36:17.729Z,7.40
2022-11-20T20:38:46.314Z,7.40
2022-11-20T20:41:14.216Z,6.13
2022-11-20T20:43:59.749Z,6.03
2022-11-20T20:46:26.763Z,5.05
2022-11-20T20:48:54.824Z,4.25
2022-11-20T20:51:23.690Z,5.47
2022-11-20T20:53:51.169Z,4.32
2022-11-20T20:56:18.568Z,3.97
2022-11-20T20:58:45.824Z,4.05
2022-11-20T21:01:14.718Z,3.88
2022-11-20T21:03:42.022Z,3.47
2022-11-20T21:06:10.599Z,3.80
2022-11-20T21:08:40.447Z,3.78
2022-11-20T21:11:13.979Z,4.55
2022-11-20T21:13:42.966Z,4.95
2022-11-20T21:16:10.944Z,5.72
2022-11-20T21:18:38.063Z,5.93
2022-11-20T21:21:25.083Z,4.85
2022-11-20T21:23:53.503Z,6.95
2022-11-20T21:26:21.037Z,6.70
2022-11-20T21:28:48.069Z,5.43
2022-11-20T21:31:18.493Z,5.43
2022-11-20T21:33:47.045Z,4.57
2022-11-20T21:36:16.161Z,5.00
2022-11-20T21:38:43.793Z,4.60
2022-11-20T21:41:11.999Z,4.32
2022-11-20T21:43:38.916Z,5.05
2022-11-20T21:46:13.643Z,6.00
2022-11-20T21:48:41.971Z,6.00
2022-11-20T21:51:13.731Z,5.20
2022-11-20T21:53:41.068Z,6.15
2022-11-20T21:56:09.313Z,5.60
2022-11-20T21:58:36.816Z,6.57
2022-11-20T22:01:11.424Z,11.45
2022-11-20T22:03:38.997Z,5.20
2022-11-20T22:06:06.978Z,6.32
2022-11-20T22:08:37.662Z,6.65
2022-11-20T22:11:09.330Z,5.88
2022-11-20T22:13:55.015Z,5.15
2022-11-20T22:16:22.495Z,6.55
2022-11-20T22:18:51.281Z,7.20
2022-11-20T22:21:20.180Z,8.35
2022-11-20T22:23:47.165Z,10.50
2022-11-20T22:26:16.417Z,7.85
2022-11-20T22:28:43.950Z,5.00
2022-11-20T22:31:11.721Z,5.30
2022-11-20T22:33:39.201Z,6.10
2022-11-20T22:36:18.432Z,7.97
2022-11-20T22:38:45.360Z,7.82
2022-11-20T22:41:17.842Z,8.82
2022-11-20T22:43:45.210Z,7.97
2022-11-20T22:46:15.880Z,7.32
2022-11-20T22:48:44.682Z,8.15
2022-11-20T22:51:13.616Z,8.35
2022-11-20T22:53:41.820Z,8.85
2022-11-20T22:56:10.391Z,8.63
2022-11-20T22:58:44.694Z,8.63
2022-11-20T23:01:16.871Z,8.65
2022-11-20T23:03:45.863Z,8.10
2022-11-20T23:06:13.280Z,8.50
2022-11-20T23:08:41.532Z,9.50
2022-11-20T23:11:10.911Z,10.32
2022-11-20T23:13:37.939Z,9.77
2022-11-20T23:16:16.478Z,9.65
2022-11-20T23:18:44.377Z,9.55
2022-11-20T23:21:49.392Z,8.45
2022-11-20T23:24:18.751Z,10.15
2022-11-20T23:26:47.938Z,9.60
2022-11-20T23:29:15.095Z,12.80
2022-11-20T23:31:42.028Z,11.30
2022-11-20T23:34:09.070Z,11.93
2022-11-20T23:36:35.965Z,11.73
2022-11-20T23:39:02.994Z,13.70
2022-11-20T23:41:29.865Z,13.05
2022-11-20T23:44:00.149Z,13.05
2022-11-20T23:46:27.226Z,13.40
2022-11-20T23:48:57.053Z,14.77
2022-11-20T23:51:23.975Z,14.80
2022-11-20T23:53:50.857Z,14.15
2022-11-20T23:56:17.711Z,12.65
2022-11-20T23:58:44.583Z,12.30
